シアトル/タコマ の空港の天気 - METARとTAF

シアトル・タコマ国際空港 ( KSEA / SEA ) - アメリカ ワシントン州シアトル
飛行場実況気象(Metar)
観測時間05/25 16:53 PDT (05/25 23:53 UTC)
風向・風速西 4m/s
視程10km以上
天気現象
少しの雲 雲底高度 1220m
全天の8割程度の雲 雲底高度 7620m
気温19.4℃
湿度49%
気圧1016.4hPa
METARKSEA 252353Z 26007KT 10SM FEW040 BKN250 19/08 A3000 RMK AO2 SLP164 T01940083 10200 20156 58008
過去の天気等 Google飛行場航空写真 Wunderground天気予報

過去48時間のMETAR

飛行場予報(TAF)
発表時間: 5/25 16:20 PDT (5/25 23:20 UTC)
予報対象時間: 25日17時 PDT ~ 26日23時 PDT
風向・風速西南西 5m/s
視程10km以上
全天の4割程度の雲 雲底高度 1220m
全天の4割程度の雲 雲底高度 7620m
25日20時 PDT から
風向・風速不定 2m/s
視程10km以上
全天の4割程度の雲 雲底高度 3050m
全天の8割程度の雲 雲底高度 7620m
26日2時 PDT から
風向・風速北北東 2m/s
視程10km以上
全天の8割程度の雲 雲底高度 3050m
26日5時 PDT から
風向・風速北東 2m/s
視程10km以上
全天を覆う雲 雲底高度 3050m
KSEA 252320Z 2600/2706 25010KT P6SM SCT040 SCT250
FM260300 VRB03KT P6SM SCT100 BKN250
FM260900 03004KT P6SM BKN100
FM261200 05003KT P6SM OVC100